Time;durP1;ratioP1;P1;durP2;ratioP2;P2;SDS_P1;SDS_P2;PMS_P1;PMS_P2;Temp;Humidity;BMP_temperature;BMP_pressure;BME280_temperature;BME280_humidity;BME280_pressure;Samples;Min_cycle;Max_cycle;Signal;HPM_P1;HPM_P2
2022/04/20 00:00:08;;;;;;;;;20.75;19.00;;;;;13.93;51.29;101053.84;2442035;28;44563;-86
2022/04/20 00:01:18;;;;;;;;;27.00;21.25;;;;;13.92;51.59;101048.63;2422522;28;47304;-90
2022/04/20 00:02:29;;;;;;;;;20.50;20.00;;;;;13.92;51.42;101049.50;2424567;28;44562;-87
2022/04/20 00:03:39;;;;;;;;;21.50;18.25;;;;;13.93;51.66;101051.22;2421583;28;47201;-88
2022/04/20 00:04:49;;;;;;;;;24.50;20.50;;;;;13.92;51.38;101054.78;2414872;28;45230;-88
2022/04/20 00:06:00;;;;;;;;;27.50;24.00;;;;;13.92;51.69;101048.63;2424289;28;47191;-87
2022/04/20 00:07:10;;;;;;;;;30.00;22.50;;;;;13.90;51.77;101046.03;2431654;28;45288;-87
2022/04/20 00:08:21;;;;;;;;;28.75;23.00;;;;;13.88;51.64;101045.25;2421719;28;48008;-87
2022/04/20 00:09:31;;;;;;;;;28.25;21.25;;;;;13.87;51.50;101042.69;2424712;28;44729;-87
2022/04/20 00:10:41;;;;;;;;;25.00;21.25;;;;;13.87;51.34;101051.47;2425379;28;48378;-87
2022/04/20 00:11:52;;;;;;;;;28.75;23.25;;;;;13.84;51.39;101041.03;2414708;28;44808;-87
2022/04/20 00:13:02;;;;;;;;;23.75;16.75;;;;;13.81;51.62;101043.78;2424368;28;45402;-87
2022/04/20 00:14:13;;;;;;;;;25.00;22.50;;;;;13.79;51.60;101054.44;2432162;28;45296;-87
2022/04/20 00:15:24;;;;;;;;;22.00;20.25;;;;;13.74;51.76;101045.84;2431696;28;45524;-88
2022/04/20 00:16:34;;;;;;;;;25.00;21.75;;;;;13.75;51.76;101049.34;2434991;28;45257;-87
2022/04/20 00:17:44;;;;;;;;;27.50;22.75;;;;;13.71;52.14;101049.47;2431601;28;45368;-88
2022/04/20 00:18:55;;;;;;;;;26.25;23.25;;;;;13.70;52.16;101046.91;2432184;28;45244;-88
2022/04/20 00:20:06;;;;;;;;;30.00;21.50;;;;;13.70;51.85;101045.09;2431781;28;46358;-90
2022/04/20 00:21:16;;;;;;;;;31.25;28.50;;;;;13.70;52.29;101045.09;2421679;28;45166;-89
2022/04/20 00:22:27;;;;;;;;;28.50;22.25;;;;;13.70;52.23;101047.72;2421493;28;47009;-89
2022/04/20 00:23:37;;;;;;;;;36.00;27.50;;;;;13.67;52.01;101047.88;2424538;28;45246;-88
2022/04/20 00:24:47;;;;;;;;;32.00;27.75;;;;;13.68;52.42;101046.09;2431951;28;46158;-84
2022/04/20 00:25:57;;;;;;;;;29.50;24.75;;;;;13.67;51.99;101050.53;2432040;28;45321;-86
2022/04/20 00:27:08;;;;;;;;;26.00;19.75;;;;;13.66;52.14;101047.94;2431878;28;46318;-86
2022/04/20 00:28:18;;;;;;;;;26.50;26.25;;;;;13.66;52.28;101047.94;2432180;28;45178;-86
2022/04/20 00:29:29;;;;;;;;;22.75;20.50;;;;;13.65;52.20;101047.09;2431888;28;46293;-86
2022/04/20 00:30:39;;;;;;;;;35.50;30.25;;;;;13.66;52.33;101043.50;2420975;28;44688;-85
2022/04/20 00:31:49;;;;;;;;;30.25;28.50;;;;;13.65;52.30;101036.53;2424227;28;45649;-86
2022/04/20 00:33:00;;;;;;;;;26.50;21.50;;;;;13.65;52.42;101039.16;2431885;28;45171;-86
2022/04/20 00:34:10;;;;;;;;;36.50;30.25;;;;;13.64;52.34;101042.72;2421510;28;47357;-85
2022/04/20 00:35:21;;;;;;;;;32.75;26.50;;;;;13.63;52.54;101043.63;2414457;28;45266;-86
2022/04/20 00:36:32;;;;;;;;;34.00;28.50;;;;;13.63;52.17;101042.78;2423970;28;45386;-86
2022/04/20 00:37:43;;;;;;;;;33.25;28.50;;;;;13.64;52.19;101045.34;2421643;28;45281;-86
2022/04/20 00:38:53;;;;;;;;;33.00;27.00;;;;;13.63;52.31;101035.69;2424077;28;48369;-86
2022/04/20 00:40:04;;;;;;;;;26.50;21.75;;;;;13.64;52.54;101037.44;2431556;28;45332;-86
2022/04/20 00:41:14;;;;;;;;;33.75;30.50;;;;;13.64;52.36;101041.84;2431307;28;45565;-86
2022/04/20 00:42:27;;;;;;;;;30.00;25.25;;;;;13.62;52.48;101041.94;2421539;28;45498;-86
2022/04/20 00:43:38;;;;;;;;;35.50;29.25;;;;;13.61;52.06;101042.84;2424147;28;46807;-85
2022/04/20 00:44:51;;;;;;;;;34.00;29.75;;;;;13.59;52.48;101042.03;2421476;28;44664;-85
2022/04/20 00:46:03;;;;;;;;;33.25;31.25;;;;;13.56;52.59;101032.47;2424844;28;46387;-86
2022/04/20 00:47:15;;;;;;;;;40.00;31.75;;;;;13.56;52.54;101035.09;2431499;28;45419;-86
2022/04/20 00:48:26;;;;;;;;;31.75;26.50;;;;;13.55;52.28;101035.16;2431780;28;45529;-86
2022/04/20 00:49:37;;;;;;;;;38.00;32.00;;;;;13.55;52.69;101030.72;2421667;28;45257;-86
2022/04/20 00:50:47;;;;;;;;;37.00;32.50;;;;;13.56;52.73;101034.22;2426389;28;45368;-86
2022/04/20 00:51:58;;;;;;;;;36.25;29.50;;;;;13.57;52.65;101034.19;2441697;28;45217;-87
2022/04/20 00:53:08;;;;;;;;;37.25;29.75;;;;;13.57;52.42;101033.31;2431925;28;47104;-87
2022/04/20 00:54:19;;;;;;;;;34.50;32.25;;;;;13.56;52.61;101032.47;2421434;28;44612;-86
2022/04/20 00:55:29;;;;;;;;;39.00;31.25;;;;;13.54;52.74;101029.00;2424258;28;45213;-86
2022/04/20 00:56:40;;;;;;;;;40.50;31.75;;;;;13.53;52.50;101026.44;2423005;28;45229;-86
2022/04/20 00:57:50;;;;;;;;;38.00;32.00;;;;;13.47;53.03;101025.75;2433952;28;45244;-86
2022/04/20 00:59:01;;;;;;;;;46.25;34.50;;;;;13.45;52.78;101019.69;2422801;28;45214;-86
2022/04/20 01:00:11;;;;;;;;;40.00;33.75;;;;;13.45;52.68;101022.31;2424168;28;45464;-87
2022/04/20 01:01:22;;;;;;;;;36.75;32.75;;;;;13.45;52.89;101024.09;2421030;28;45174;-86
2022/04/20 01:02:33;;;;;;;;;38.75;32.00;;;;;13.46;53.29;101024.03;2414040;28;48178;-86
2022/04/20 01:03:44;;;;;;;;;41.00;34.00;;;;;13.46;52.99;101026.66;2414266;28;44749;-86
2022/04/20 01:04:54;;;;;;;;;44.75;33.75;;;;;13.45;53.01;101024.97;2424012;28;45554;-87
2022/04/20 01:06:07;;;;;;;;;41.75;34.00;;;;;13.43;52.98;101026.81;2421444;28;45254;-85
2022/04/20 01:07:17;;;;;;;;;42.50;35.25;;;;;13.41;52.66;101022.50;2424262;28;48089;-87
2022/04/20 01:08:28;;;;;;;;;37.25;33.25;;;;;13.36;53.13;101020.91;2431205;28;45280;-86
2022/04/20 01:09:41;;;;;;;;;40.25;33.25;;;;;13.38;52.97;101028.78;2431830;28;46523;-86
2022/04/20 01:10:51;;;;;;;;;43.25;34.00;;;;;13.36;53.04;101025.31;2431488;28;45232;-87
2022/04/20 01:12:02;;;;;;;;;34.25;30.50;;;;;13.35;53.04;101026.25;2431553;28;45347;-86
2022/04/20 01:13:12;;;;;;;;;37.00;32.50;;;;;13.33;53.18;101028.97;2421106;28;45556;-86
2022/04/20 01:14:22;;;;;;;;;41.25;34.00;;;;;13.31;53.37;101025.50;2423718;28;47243;-84
2022/04/20 01:15:34;;;;;;;;;36.00;30.75;;;;;13.31;53.23;101027.31;2420133;28;44793;-84
2022/04/20 01:16:46;;;;;;;;;35.75;30.75;;;;;13.32;53.11;101019.31;2412143;28;47115;-84
2022/04/20 01:17:57;;;;;;;;;36.75;31.25;;;;;13.30;53.38;101018.53;2414567;28;45219;-85
2022/04/20 01:19:07;;;;;;;;;36.50;30.75;;;;;13.30;53.30;101020.28;2421923;28;46110;-85
2022/04/20 01:20:18;;;;;;;;;36.50;30.75;;;;;13.29;53.36;101016.78;2419992;28;45170;-84
2022/04/20 01:21:28;;;;;;;;;46.25;34.50;;;;;13.30;53.89;101023.78;2418810;28;45434;-84
2022/04/20 01:22:40;;;;;;;;;44.25;35.25;;;;;13.29;53.50;101016.78;2421891;28;45162;-85
2022/04/20 01:23:50;;;;;;;;;41.75;36.75;;;;;13.29;53.60;101022.06;2422064;28;45712;-86
2022/04/20 01:25:01;;;;;;;;;38.00;32.75;;;;;13.28;53.22;101020.38;2430480;28;45390;-86
2022/04/20 01:26:12;;;;;;;;;37.00;32.75;;;;;13.24;53.20;101011.69;2425297;28;48035;-86
2022/04/20 01:27:24;;;;;;;;;45.25;33.75;;;;;13.27;53.61;101019.50;2410650;28;45384;-87
2022/04/20 01:28:36;;;;;;;;;47.25;36.00;;;;;13.25;53.86;101015.19;2412798;28;47030;-86
2022/04/20 01:29:48;;;;;;;;;41.00;34.75;;;;;13.25;53.42;101015.19;2419665;28;44809;-86
2022/04/20 01:30:58;;;;;;;;;39.00;36.25;;;;;13.27;53.65;101016.84;2412187;28;48331;-86
2022/04/20 01:32:09;;;;;;;;;35.75;32.50;;;;;13.26;53.69;101017.75;2414188;28;45334;-87
2022/04/20 01:33:19;;;;;;;;;43.25;33.75;;;;;13.27;53.38;101014.22;2421297;28;45256;-86
2022/04/20 01:34:29;;;;;;;;;32.00;30.50;;;;;13.26;53.54;101015.13;2421766;28;44764;-86
2022/04/20 01:35:40;;;;;;;;;44.25;37.00;;;;;13.26;53.79;101019.56;2421582;28;45436;-86
2022/04/20 01:36:50;;;;;;;;;42.25;36.00;;;;;13.24;53.85;101019.63;2421986;28;45222;-87
2022/04/20 01:38:00;;;;;;;;;41.50;33.00;;;;;13.25;53.53;101017.84;2421703;28;45263;-87
2022/04/20 01:39:11;;;;;;;;;47.75;38.75;;;;;13.23;53.97;101014.41;2407977;28;45343;-87
2022/04/20 01:40:21;;;;;;;;;38.25;29.75;;;;;13.22;53.70;101024.09;2411473;28;47313;-88
2022/04/20 01:41:31;;;;;;;;;39.75;33.00;;;;;13.21;54.07;101019.72;2413141;28;45283;-87
2022/04/20 01:42:42;;;;;;;;;34.50;32.00;;;;;13.21;53.74;101017.09;2411265;28;47252;-87
2022/04/20 01:43:52;;;;;;;;;42.50;35.75;;;;;13.19;54.12;101005.72;2412516;28;45318;-87
2022/04/20 01:45:03;;;;;;;;;40.25;34.50;;;;;13.20;54.16;101019.78;2409298;28;47940;-87
2022/04/20 01:46:15;;;;;;;;;47.25;37.75;;;;;13.18;53.99;101017.22;2414264;28;45257;-87
2022/04/20 01:47:26;;;;;;;;;45.25;37.00;;;;;13.16;54.05;101016.44;2420651;28;45264;-86
2022/04/20 01:48:36;;;;;;;;;46.50;37.25;;;;;13.15;53.42;101017.34;2421808;28;44622;-86
2022/04/20 01:49:47;;;;;;;;;53.25;39.50;;;;;13.14;54.04;101024.41;2421412;28;45573;-86
2022/04/20 01:52:26;;;;;;;;;41.00;37.50;;;;;13.13;54.35;101020.06;2411383;28;45684;-87
2022/04/20 01:53:37;;;;;;;;;56.00;41.00;;;;;13.12;53.83;101014.81;2410267;28;45396;-87
2022/04/20 01:54:47;;;;;;;;;50.75;39.50;;;;;13.13;54.01;101013.91;2414001;28;47206;-86
2022/04/20 01:56:00;;;;;;;;;52.00;38.75;;;;;13.14;53.88;101023.53;2425260;28;45285;-87
2022/04/20 01:57:10;;;;;;;;;48.00;35.75;;;;;13.12;54.07;101017.47;2424668;28;46200;-87
2022/04/20 01:58:20;;;;;;;;;44.50;36.75;;;;;13.12;54.33;101017.47;2423430;28;45215;-87
2022/04/20 01:59:31;;;;;;;;;48.25;38.75;;;;;13.11;54.15;101023.66;2412976;28;47453;-87
2022/04/20 02:00:41;;;;;;;;;43.00;37.25;;;;;13.09;54.02;101020.25;2412987;28;45255;-87
2022/04/20 02:03:21;;;;;;;;;52.00;40.00;;;;;13.03;54.13;101010.78;2423489;28;45421;-87
2022/04/20 02:04:31;;;;;;;;;49.00;41.00;;;;;13.03;54.04;101014.28;2412767;28;48697;-87
2022/04/20 02:05:41;;;;;;;;;56.50;40.75;;;;;13.01;54.33;101016.09;2415867;28;45215;-87
2022/04/20 02:06:52;;;;;;;;;46.50;36.25;;;;;13.01;54.33;101016.09;2423363;28;45288;-86
2022/04/20 02:08:02;;;;;;;;;50.75;41.00;;;;;13.00;53.90;101019.66;2420272;28;45458;-86
2022/04/20 02:09:13;;;;;;;;;62.00;42.25;;;;;13.02;54.39;101015.19;2423451;28;45242;-86
2022/04/20 02:10:24;;;;;;;;;55.75;39.50;;;;;13.02;53.93;101023.09;2401759;28;45326;-84
2022/04/20 02:11:35;;;;;;;;;53.25;41.25;;;;;13.02;54.17;101014.31;2412895;28;46356;-85
2022/04/20 02:12:45;;;;;;;;;48.25;38.25;;;;;13.03;54.22;101019.56;2415897;28;45265;-85
2022/04/20 02:13:56;;;;;;;;;45.25;39.75;;;;;13.04;54.21;101017.75;2414736;28;45392;-85
2022/04/20 02:15:06;;;;;;;;;48.75;36.50;;;;;13.05;54.25;101009.78;2431959;28;44678;-85
2022/04/20 02:16:17;;;;;;;;;48.00;39.25;;;;;13.05;54.53;101006.28;2439490;28;46097;-86
2022/04/20 02:17:28;;;;;;;;;53.00;42.00;;;;;13.08;54.19;101011.47;2439091;28;45268;-85
2022/04/20 02:18:39;;;;;;;;;56.50;40.75;;;;;13.09;54.42;101009.69;2432197;28;45614;-85
2022/04/20 02:19:49;;;;;;;;;53.00;38.25;;;;;13.09;54.46;101005.25;2422452;28;45435;-85
2022/04/20 02:21:00;;;;;;;;;53.50;40.00;;;;;13.08;54.38;101005.31;2417187;28;48184;-86
2022/04/20 02:22:10;;;;;;;;;49.25;39.75;;;;;13.08;54.58;101000.03;2432192;28;44615;-86
2022/04/20 02:23:21;;;;;;;;;50.00;41.50;;;;;13.08;54.40;101000.03;2426376;28;45544;-86
2022/04/20 02:24:31;;;;;;;;;51.50;42.25;;;;;13.05;54.52;100999.25;2432935;28;45471;-86
2022/04/20 02:25:41;;;;;;;;;52.50;40.00;;;;;13.03;54.39;100998.44;2422240;28;46949;-86
2022/04/20 02:26:52;;;;;;;;;54.50;38.25;;;;;13.01;54.62;100996.78;2425674;28;45318;-85
2022/04/20 02:28:02;;;;;;;;;56.00;42.00;;;;;13.00;54.64;100993.28;2432536;28;45325;-86
2022/04/20 02:29:12;;;;;;;;;54.75;41.50;;;;;12.98;54.32;100995.13;2422598;28;44850;-86
2022/04/20 02:30:23;;;;;;;;;52.75;39.00;;;;;12.97;54.57;100988.13;2425135;28;46396;-86
2022/04/20 02:31:33;;;;;;;;;54.25;41.75;;;;;12.94;54.72;100988.22;2422489;28;45376;-86
2022/04/20 02:32:43;;;;;;;;;53.75;42.00;;;;;12.94;54.45;100988.22;2424705;28;48077;-86
2022/04/20 02:33:54;;;;;;;;;47.25;38.75;;;;;12.93;54.73;100983.88;2432329;28;45269;-86
2022/04/20 02:35:04;;;;;;;;;56.75;43.25;;;;;12.90;54.68;100992.78;2422052;28;47095;-86
2022/04/20 02:36:15;;;;;;;;;55.25;42.50;;;;;12.90;54.73;100984.00;2425417;28;45298;-86
2022/04/20 02:37:26;;;;;;;;;50.00;40.00;;;;;12.89;54.60;100982.31;2432539;28;45752;-86
2022/04/20 02:38:36;;;;;;;;;50.50;41.25;;;;;12.91;55.00;100985.72;2432788;28;44586;-86
2022/04/20 02:39:47;;;;;;;;;56.00;44.00;;;;;12.90;54.98;100976.09;2422319;28;48102;-90
2022/04/20 02:40:57;;;;;;;;;53.75;41.25;;;;;12.89;54.82;100977.84;2422609;28;45246;-91
2022/04/20 02:42:09;;;;;;;;;57.50;44.25;;;;;12.91;54.50;100973.38;2424936;28;47128;-90
2022/04/20 02:43:19;;;;;;;;;52.00;42.75;;;;;12.91;54.48;100967.25;2432613;28;45214;-90
2022/04/20 02:44:30;;;;;;;;;57.25;44.00;;;;;12.91;54.84;100973.38;2433496;28;48102;-91
2022/04/20 02:45:40;;;;;;;;;55.25;45.00;;;;;12.91;54.74;100973.38;2432257;28;45222;-89
2022/04/20 02:46:51;;;;;;;;;55.75;43.75;;;;;12.91;54.66;100967.25;2423829;28;48207;-89
2022/04/20 02:48:02;;;;;;;;;60.50;45.75;;;;;12.92;54.55;100968.97;2424968;28;44718;-84
2022/04/20 02:49:13;;;;;;;;;56.75;42.50;;;;;12.90;54.83;100969.03;2422053;28;46199;-84
2022/04/20 02:50:23;;;;;;;;;52.25;40.75;;;;;12.91;54.84;100969.91;2422664;28;45392;-85
2022/04/20 02:51:33;;;;;;;;;53.00;43.50;;;;;12.91;55.04;100973.38;2422207;28;47010;-84
2022/04/20 02:52:44;;;;;;;;;55.00;42.00;;;;;12.90;54.84;100970.81;2428175;28;45539;-85
2022/04/20 02:53:54;;;;;;;;;52.50;43.50;;;;;12.91;54.72;100981.28;2431444;28;46982;-84
2022/04/20 02:55:05;;;;;;;;;52.00;40.00;;;;;12.90;54.76;100973.44;2425351;28;45314;-84
2022/04/20 02:56:15;;;;;;;;;57.50;47.25;;;;;12.89;54.59;100972.56;2432449;28;46480;-84
2022/04/20 02:57:26;;;;;;;;;56.25;44.75;;;;;12.85;54.72;100973.63;2422253;28;45360;-84
2022/04/20 02:58:36;;;;;;;;;54.00;43.25;;;;;12.86;54.86;100966.59;2425147;28;45260;-84
2022/04/20 02:59:46;;;;;;;;;56.75;43.25;;;;;12.85;54.98;100968.34;2432616;28;45423;-84
2022/04/20 03:00:57;;;;;;;;;53.25;43.50;;;;;12.83;54.62;100965.78;2432554;28;46652;-85
2022/04/20 03:02:07;;;;;;;;;54.50;44.00;;;;;12.82;54.89;100965.81;2421878;28;45226;-86
2022/04/20 03:03:17;;;;;;;;;51.00;41.75;;;;;12.81;55.02;100959.72;2425096;28;45621;-86
2022/04/20 03:04:28;;;;;;;;;57.00;43.50;;;;;12.81;55.12;100964.13;2422143;28;44632;-83
2022/04/20 03:05:38;;;;;;;;;60.50;44.00;;;;;12.81;54.97;100957.06;2424858;28;46505;-82
2022/04/20 03:06:49;;;;;;;;;55.50;43.00;;;;;12.79;55.03;100953.63;2422037;28;45245;-83
2022/04/20 03:07:59;;;;;;;;;57.75;47.25;;;;;12.79;54.88;100953.63;2424926;28;45251;-82
2022/04/20 03:09:10;;;;;;;;;56.00;44.50;;;;;12.80;54.77;100952.72;2432637;28;45196;-83
2022/04/20 03:10:22;;;;;;;;;57.50;44.00;;;;;12.80;55.08;100954.47;2421937;28;48122;-82
2022/04/20 03:11:33;;;;;;;;;59.75;44.50;;;;;12.79;54.83;100950.16;2425318;28;45175;-87
2022/04/20 03:12:43;;;;;;;;;56.50;41.75;;;;;12.79;55.17;100952.78;2421373;28;48373;-88
2022/04/20 03:13:54;;;;;;;;;58.75;48.25;;;;;12.79;55.21;100958.88;2424973;28;45487;-87
2022/04/20 03:15:05;;;;;;;;;55.75;41.00;;;;;12.79;55.21;100952.78;2432375;28;45249;-87
2022/04/20 03:16:16;;;;;;;;;57.50;46.00;;;;;12.79;55.35;100956.25;2437260;28;45312;-87
2022/04/20 03:17:26;;;;;;;;;64.25;48.00;;;;;12.80;55.44;100957.13;2436569;28;45626;-86
2022/04/20 03:18:36;;;;;;;;;58.00;46.75;;;;;12.81;55.19;100951.81;2432541;28;45209;-85
2022/04/20 03:19:47;;;;;;;;;65.00;49.50;;;;;12.79;54.92;100952.78;2421899;28;48559;-85
2022/04/20 03:20:57;;;;;;;;;58.50;45.50;;;;;12.77;55.39;100954.59;2425143;28;45249;-86
2022/04/20 03:22:08;;;;;;;;;59.25;45.50;;;;;12.74;55.22;100960.00;2432404;28;45355;-85
2022/04/20 03:23:18;;;;;;;;;59.75;46.00;;;;;12.73;55.14;100953.88;2439841;28;45238;-86
2022/04/20 03:24:28;;;;;;;;;60.00;48.00;;;;;12.73;55.21;100953.88;2427482;28;47196;-86
2022/04/20 03:25:39;;;;;;;;;58.25;49.00;;;;;12.73;55.17;100958.28;2424980;28;44648;-85
2022/04/20 03:26:49;;;;;;;;;61.25;45.00;;;;;12.71;55.37;100959.22;2422018;28;47492;-82
2022/04/20 03:28:00;;;;;;;;;56.25;44.75;;;;;12.71;55.28;100958.34;2425000;28;44625;-82
2022/04/20 03:29:10;;;;;;;;;57.75;45.00;;;;;12.69;55.48;100970.75;2432265;28;46166;-83
2022/04/20 03:30:21;;;;;;;;;61.00;45.25;;;;;12.67;55.38;100960.22;2432646;28;44927;-83
2022/04/20 03:31:34;;;;;;;;;57.25;44.25;;;;;12.65;55.53;100962.06;2432135;28;46266;-83
2022/04/20 03:32:45;;;;;;;;;59.25;45.50;;;;;12.65;55.35;100974.38;2431889;28;44672;-84
2022/04/20 03:33:56;;;;;;;;;59.75;45.00;;;;;12.63;55.63;100971.81;2432345;28;46730;-85
2022/04/20 03:35:07;;;;;;;;;58.00;44.00;;;;;12.60;55.67;100971.94;2421966;28;45266;-86
2022/04/20 03:36:17;;;;;;;;;62.00;45.00;;;;;12.59;55.26;100978.13;2424764;28;45370;-85
2022/04/20 03:37:28;;;;;;;;;64.00;48.25;;;;;12.57;55.60;100983.44;2432478;28;45167;-86
2022/04/20 03:38:38;;;;;;;;;57.25;43.25;;;;;12.55;55.36;100981.78;2432393;28;45264;-87
2022/04/20 03:39:48;;;;;;;;;52.25;42.25;;;;;12.53;55.55;100976.59;2421799;28;45259;-88
2022/04/20 03:40:59;;;;;;;;;58.75;43.75;;;;;12.53;55.93;100984.50;2424675;28;45318;-87
2022/04/20 03:42:10;;;;;;;;;57.50;47.00;;;;;12.55;55.67;100982.66;2432342;28;45229;-86
2022/04/20 03:43:20;;;;;;;;;67.25;49.25;;;;;12.54;55.19;100978.31;2421847;28;47079;-85
2022/04/20 03:44:31;;;;;;;;;56.25;45.00;;;;;12.52;55.79;100976.66;2422133;28;45228;-86
2022/04/20 03:45:42;;;;;;;;;58.00;48.25;;;;;12.51;55.78;100977.56;2424932;28;46299;-86
2022/04/20 03:46:53;;;;;;;;;60.25;47.00;;;;;12.52;55.41;100981.94;2430899;28;45236;-86
2022/04/20 03:48:04;;;;;;;;;62.25;45.75;;;;;12.49;55.87;100980.25;2428344;28;45351;-87
2022/04/20 03:49:15;;;;;;;;;62.75;48.50;;;;;12.49;55.74;100989.00;2421948;28;45293;-87
2022/04/20 03:50:25;;;;;;;;;61.25;47.00;;;;;12.49;55.58;100988.16;2424480;28;46659;-89
2022/04/20 03:51:36;;;;;;;;;59.25;46.25;;;;;12.49;56.02;100988.16;2421870;28;44640;-87
2022/04/20 03:52:47;;;;;;;;;62.00;50.25;;;;;12.51;55.89;100991.59;2424870;28;45563;-86
2022/04/20 03:53:57;;;;;;;;;64.00;46.00;;;;;12.53;55.85;100995.03;2421864;28;45249;-85
2022/04/20 03:55:07;;;;;;;;;60.25;48.00;;;;;12.56;56.15;100999.34;2424615;28;46143;-86
2022/04/20 03:56:18;;;;;;;;;63.75;50.25;;;;;12.57;55.93;100999.28;2432393;28;44678;-87
2022/04/20 03:57:28;;;;;;;;;59.00;47.00;;;;;12.58;55.48;100993.09;2432051;28;45204;-87
2022/04/20 03:58:39;;;;;;;;;59.00;49.00;;;;;12.60;56.20;101000.94;2432172;28;45208;-86
2022/04/20 03:59:49;;;;;;;;;60.00;49.75;;;;;12.60;55.86;101003.56;2431958;28;46411;-86
2022/04/20 04:01:01;;;;;;;;;62.00;46.75;;;;;12.62;55.86;101000.91;2432418;28;45233;-86
2022/04/20 04:02:11;;;;;;;;;59.50;48.50;;;;;12.63;55.74;100997.31;2421238;28;47317;-86
2022/04/20 04:03:21;;;;;;;;;65.25;50.00;;;;;12.63;55.92;100999.97;2424717;28;45373;-86
2022/04/20 04:04:32;;;;;;;;;59.25;46.00;;;;;12.65;55.72;101004.25;2432069;28;46442;-85
2022/04/20 04:05:43;;;;;;;;;60.75;49.75;;;;;12.65;55.83;101000.75;2431890;28;45340;-86
2022/04/20 04:06:53;;;;;;;;;55.25;45.50;;;;;12.65;55.30;100992.84;2421589;28;47349;-85
2022/04/20 04:08:05;;;;;;;;;63.00;48.00;;;;;12.64;56.04;101001.69;2424703;28;45283;-85
2022/04/20 04:09:15;;;;;;;;;58.25;44.75;;;;;12.63;55.58;100989.41;2421773;28;47161;-86
2022/04/20 04:10:26;;;;;;;;;63.50;49.50;;;;;12.62;55.57;100998.25;2423246;28;45234;-86
2022/04/20 04:11:36;;;;;;;;;62.00;49.25;;;;;12.60;55.84;100991.25;2430014;28;45279;-86
2022/04/20 04:12:46;;;;;;;;;57.50;47.25;;;;;12.59;55.57;100986.88;2435834;28;44707;-87
2022/04/20 04:13:57;;;;;;;;;58.75;48.00;;;;;12.60;55.96;100985.97;2423754;28;47339;-87
2022/04/20 04:15:08;;;;;;;;;64.50;50.00;;;;;12.64;55.86;100985.88;2424501;28;45296;-87
2022/04/20 04:16:18;;;;;;;;;69.25;50.25;;;;;12.65;55.81;100979.66;2437242;28;45222;-86
2022/04/20 04:17:28;;;;;;;;;58.00;45.25;;;;;12.64;55.72;100983.22;2434921;28;45264;-87
2022/04/20 04:18:39;;;;;;;;;65.50;51.25;;;;;12.66;55.92;100982.25;2420528;28;48353;-86
2022/04/20 04:19:49;;;;;;;;;66.00;50.25;;;;;12.67;56.07;100977.81;2426608;28;44635;-87
2022/04/20 04:20:59;;;;;;;;;61.25;46.00;;;;;12.70;56.29;100980.34;2439113;28;46991;-87
2022/04/20 04:22:09;;;;;;;;;61.00;48.00;;;;;12.70;55.56;100975.94;2436845;28;45209;-87
2022/04/20 04:23:20;;;;;;;;;61.00;49.25;;;;;12.73;56.04;100982.00;2431859;28;46465;-87
2022/04/20 04:24:36;;;;;;;;;62.00;48.25;;;;;12.71;55.71;100982.09;2432101;28;45150;-87
2022/04/20 04:25:47;;;;;;;;;68.25;51.50;;;;;12.70;55.51;100980.34;2431862;28;45493;-87
2022/04/20 04:26:58;;;;;;;;;62.50;48.25;;;;;12.69;55.86;100978.66;2421604;28;45190;-87
2022/04/20 04:28:09;;;;;;;;;57.50;45.75;;;;;12.69;55.91;100984.75;2424384;28;45719;-87
2022/04/20 04:29:19;;;;;;;;;61.50;49.25;;;;;12.68;55.58;100977.78;2432041;28;44641;-87
2022/04/20 04:30:29;;;;;;;;;58.75;46.75;;;;;12.68;55.87;100984.81;2421457;28;47061;-87
2022/04/20 04:31:42;;;;;;;;;61.75;47.00;;;;;12.68;55.59;100987.47;2424522;28;45170;-87
2022/04/20 04:32:53;;;;;;;;;61.50;49.25;;;;;12.67;55.75;100981.31;2421262;28;48363;-87
2022/04/20 04:34:03;;;;;;;;;64.25;50.50;;;;;12.67;55.41;100983.09;2424632;28;45441;-86
2022/04/20 04:35:14;;;;;;;;;67.00;49.75;;;;;12.67;55.51;100985.72;2431666;28;45453;-86
2022/04/20 04:36:24;;;;;;;;;63.00;47.00;;;;;12.65;55.89;100974.38;2421557;28;45245;-86
2022/04/20 04:37:35;;;;;;;;;64.00;51.25;;;;;12.69;55.73;100989.19;2424439;28;45327;-88
2022/04/20 04:38:46;;;;;;;;;62.25;51.00;;;;;12.68;55.82;100990.09;2421303;28;45385;-89
2022/04/20 04:39:56;;;;;;;;;68.50;50.25;;;;;12.67;55.56;100988.38;2424631;28;45318;-89
2022/04/20 04:41:07;;;;;;;;;66.00;50.75;;;;;12.66;55.42;100986.66;2421428;28;45311;-88
2022/04/20 04:42:17;;;;;;;;;66.00;50.25;;;;;12.65;55.61;100988.44;2421377;28;47402;-89
2022/04/20 04:43:27;;;;;;;;;64.75;51.00;;;;;12.65;55.62;100988.44;2424147;28;44627;-89
2022/04/20 04:44:38;;;;;;;;;64.25;50.25;;;;;12.65;55.38;100996.34;2430558;28;45766;-87
2022/04/20 04:48:51;;;;;;;;;63.75;50.25;;;;;12.64;55.56;100988.50;2421008;28;45366;-86
2022/04/20 04:50:03;;;;;;;;;70.50;53.25;;;;;12.66;55.81;100997.22;2431157;28;46349;-86
2022/04/20 04:51:15;;;;;;;;;58.00;47.50;;;;;12.64;55.80;100996.41;2421503;28;45310;-83
2022/04/20 04:52:25;;;;;;;;;62.00;48.00;;;;;12.64;55.55;100996.41;2424222;28;46387;-82
2022/04/20 04:53:38;;;;;;;;;60.00;48.75;;;;;12.66;55.81;101000.72;2431637;28;44653;-82
2022/04/20 04:54:49;;;;;;;;;62.00;48.75;;;;;12.66;55.70;100999.84;2424068;28;45491;-82
2022/04/20 04:55:59;;;;;;;;;64.00;50.50;;;;;12.66;55.63;101008.63;2421480;28;44673;-82
2022/04/20 04:57:12;;;;;;;;;68.00;51.25;;;;;12.67;55.54;101001.56;2424280;28;45242;-84
2022/04/20 04:58:22;;;;;;;;;60.25;48.00;;;;;12.66;55.66;100997.22;2421434;28;45363;-85
2022/04/20 04:59:37;;;;;;;;;58.00;47.25;;;;;12.66;55.79;101005.13;2424359;28;45298;-86
2022/04/20 05:00:47;;;;;;;;;67.25;49.00;;;;;12.65;55.50;101003.41;2421306;28;44691;-84
2022/04/20 05:01:58;;;;;;;;;65.25;50.25;;;;;12.64;55.42;101007.84;2423801;28;46287;-84
2022/04/20 05:03:09;;;;;;;;;62.00;50.00;;;;;12.64;55.52;101001.69;2431760;28;45225;-84
2022/04/20 05:04:19;;;;;;;;;66.25;51.00;;;;;12.63;55.63;100994.69;2431383;28;45318;-83
2022/04/20 05:05:31;;;;;;;;;62.75;49.75;;;;;12.63;55.78;100994.69;2430888;28;44857;-83
2022/04/20 05:06:43;;;;;;;;;65.75;51.50;;;;;12.63;55.55;100994.69;2431056;28;46433;-83
2022/04/20 05:07:54;;;;;;;;;70.50;55.00;;;;;12.63;55.56;100994.69;2431811;28;45299;-84
2022/04/20 05:09:05;;;;;;;;;61.50;50.25;;;;;12.60;55.56;100999.16;2431481;28;45519;-86
2022/04/20 05:10:15;;;;;;;;;63.75;49.75;;;;;12.60;55.41;100993.88;2421174;28;45361;-86
2022/04/20 05:11:26;;;;;;;;;62.75;51.25;;;;;12.59;55.67;100992.16;2423965;28;46305;-86
2022/04/20 05:12:36;;;;;;;;;66.25;47.50;;;;;12.58;55.61;100990.47;2431683;28;45223;-86
2022/04/20 05:13:46;;;;;;;;;61.25;49.25;;;;;12.59;55.39;100992.16;2431289;28;46466;-86
2022/04/20 05:14:57;;;;;;;;;61.50;45.50;;;;;12.59;55.67;100992.16;2431612;28;45473;-87
2022/04/20 05:16:08;;;;;;;;;65.50;50.00;;;;;12.62;55.32;100995.63;2435267;28;46164;-86
2022/04/20 05:17:19;;;;;;;;;64.50;50.25;;;;;12.62;55.68;100990.34;2432023;28;45224;-86
2022/04/20 05:18:29;;;;;;;;;67.50;54.00;;;;;12.63;55.18;100989.41;2421102;28;47203;-84
2022/04/20 05:19:39;;;;;;;;;68.00;50.25;;;;;12.64;55.39;100991.16;2421251;28;45306;-84
2022/04/20 05:20:50;;;;;;;;;62.50;47.25;;;;;12.62;55.49;100993.81;2420789;28;48442;-84
2022/04/20 05:22:00;;;;;;;;;66.00;49.00;;;;;12.64;55.23;100999.06;2413961;28;45229;-83
2022/04/20 05:23:11;;;;;;;;;69.00;53.25;;;;;12.64;55.47;100991.16;2424064;28;45359;-84
2022/04/20 05:24:21;;;;;;;;;64.75;50.25;;;;;12.63;55.36;100992.06;2421381;28;45286;-84
2022/04/20 05:25:31;;;;;;;;;64.75;49.50;;;;;12.65;55.60;100990.22;2414087;28;47962;-83
2022/04/20 05:26:42;;;;;;;;;63.00;49.50;;;;;12.65;55.41;100992.84;2424105;28;45278;-88